Stations météo

réclame
Mon MeteoGroup
Ter Heijde, Pays-Bas (6336): Température de l'air & dewpoint: 16.10.2017 10:00:00 - 22.10.2017 10:00:00 (CEST)Ter Heijde, Pays-Bas (6336): Vitesse du vent & gusts: 16.10.2017 10:00:00 - 22.10.2017 10:00:00 (CEST)Ter Heijde, Pays-Bas (6336): Direction du vent: 16.10.2017 10:00:00 - 22.10.2017 10:00:00 (CEST)
Date & Time tt [°C] td [°C] ff [km/h] ff [knt] fx [km/h] fx [knt] dd
22.10.2017 10:00:00 - - - - - - -
22.10.2017 09:00:00 - - - - - - -
22.10.2017 08:00:00 13,3 9,5 42 23 54 29 WNW
22.10.2017 07:00:00 12,9 11,3 35 19 54 29 W
22.10.2017 06:00:00 12,4 11,1 41 22 57 31 W
22.10.2017 05:00:00 - - - - - - -
22.10.2017 04:00:00 10,7 9,6 31 17 48 26 SSW
22.10.2017 03:00:00 10,7 8,6 34 18 54 29 S
22.10.2017 02:00:00 11,1 8,1 31 17 54 29 S
22.10.2017 01:00:00 11,9 7,8 34 18 57 31 S
22.10.2017 00:00:00 12,2 8,1 31 17 50 27 S
21.10.2017 23:00:00 12,5 8,2 29 16 52 28 SSW
21.10.2017 22:00:00 12,8 8,1 34 18 50 27 SSW
21.10.2017 21:00:00 12,9 7,7 34 18 52 28 SSW
21.10.2017 20:00:00 13,1 8,4 29 16 46 25 SSW
21.10.2017 19:00:00 12,6 8,7 28 15 57 31 SSW
21.10.2017 18:00:00 13,1 9,1 28 15 59 32 SSW
21.10.2017 17:00:00 15,6 9,7 22 12 52 28 SSW
21.10.2017 16:00:00 16,0 8,7 37 20 54 29 SSW
21.10.2017 15:00:00 16,2 9,6 34 18 54 29 SSW
21.10.2017 14:00:00 16,5 11,0 29 16 48 26 SSW
21.10.2017 13:00:00 16,6 11,5 29 16 48 26 SSW
21.10.2017 12:00:00 15,6 12,2 28 15 44 24 SSW
21.10.2017 11:00:00 14,5 12,7 31 17 48 26 SSW
21.10.2017 10:00:00 13,8 12,5 28 15 48 26 SSW
21.10.2017 09:00:00 12,8 11,9 24 13 37 20 S
21.10.2017 08:00:00 - - - - - - -
21.10.2017 07:00:00 - - - - - - -
21.10.2017 06:00:00 - - - - - - -
21.10.2017 05:00:00 - - - - - - -
21.10.2017 04:00:00 - - - - - - -
21.10.2017 03:00:00 - - - - - - -
21.10.2017 02:00:00 - - - - - - -
21.10.2017 01:00:00 - - - - - - -
21.10.2017 00:00:00 - - - - - - -
20.10.2017 23:00:00 - - - - - - -
20.10.2017 22:00:00 - - - - - - -
20.10.2017 21:00:00 - - - - - - -
20.10.2017 20:00:00 14,3 9,9 42 23 63 34 WSW
20.10.2017 19:00:00 14,5 10,9 42 23 59 32 WSW
20.10.2017 18:00:00 14,4 11,2 42 23 59 32 WSW
20.10.2017 17:00:00 14,4 11,4 48 26 61 33 WSW
20.10.2017 16:00:00 14,3 11,4 42 23 59 32 WSW
20.10.2017 15:00:00 14,3 11,8 41 22 54 29 SW
20.10.2017 14:00:00 13,0 11,9 34 18 57 31 SSW
20.10.2017 13:00:00 13,0 11,2 39 21 61 33 SSW
20.10.2017 12:00:00 13,5 10,3 37 20 57 31 S
20.10.2017 11:00:00 13,4 10,2 39 21 55 30 S
20.10.2017 10:00:00 13,6 10,8 28 15 46 25 S
20.10.2017 09:00:00 13,6 11,8 26 14 52 28 SSW
20.10.2017 08:00:00 12,9 11,5 18 10 42 23 S
20.10.2017 07:00:00 14,1 12,3 28 15 57 31 SSW
20.10.2017 06:00:00 15,4 13,1 26 14 44 24 S
20.10.2017 05:00:00 16,7 12,8 26 14 41 22 S
20.10.2017 04:00:00 16,7 13,4 22 12 37 20 SSE
20.10.2017 03:00:00 17,4 13,5 22 12 37 20 S
20.10.2017 02:00:00 17,8 14,1 24 13 35 19 S
20.10.2017 01:00:00 17,7 14,4 22 12 46 25 S
20.10.2017 00:00:00 18,7 14,2 28 15 42 23 S
19.10.2017 23:00:00 18,5 13,8 18 10 28 15 S
19.10.2017 22:00:00 18,6 14,1 15 8 26 14 S
19.10.2017 21:00:00 18,5 14,2 13 7 21 11 SSE
19.10.2017 20:00:00 18,4 13,9 8 4 18 10 SE
19.10.2017 19:00:00 19,1 13,9 11 6 31 17 SSE
19.10.2017 18:00:00 20,3 14,2 16 9 31 17 SSE
19.10.2017 17:00:00 20,6 14,0 11 6 29 16 SE
19.10.2017 16:00:00 20,9 13,3 15 8 28 15 SSE
19.10.2017 15:00:00 19,6 13,5 13 7 28 15 SE
19.10.2017 14:00:00 20,1 12,8 15 8 28 15 SE
19.10.2017 13:00:00 20,1 12,8 15 8 28 15 SE
19.10.2017 12:00:00 18,3 12,5 15 8 24 13 SSE
19.10.2017 11:00:00 16,5 12,8 11 6 24 13 SSE
19.10.2017 10:00:00 14,4 13,4 13 7 21 11 SE
19.10.2017 09:00:00 13,7 13,1 11 6 16 9 SE
19.10.2017 08:00:00 13,5 12,9 8 4 11 6 SE
19.10.2017 07:00:00 13,3 12,7 8 4 11 6 ESE
19.10.2017 06:00:00 13,5 12,7 8 4 11 6 SE
19.10.2017 05:00:00 13,9 13,1 5 3 11 6 ESE
19.10.2017 04:00:00 14,4 13,6 8 4 11 6 SSE
19.10.2017 03:00:00 14,3 13,3 5 3 9 5 SE
19.10.2017 02:00:00 14,7 13,6 5 3 9 5 SSE
19.10.2017 01:00:00 15,1 13,8 5 3 9 5 SSE
19.10.2017 00:00:00 15,7 14,1 5 3 9 5 SE
18.10.2017 23:00:00 15,8 14,2 5 3 11 6 SE
18.10.2017 22:00:00 15,8 14,0 8 4 15 8 SE
18.10.2017 21:00:00 16,0 14,0 8 4 13 7 SE
18.10.2017 20:00:00 16,2 13,5 8 4 13 7 ESE
18.10.2017 19:00:00 17,0 13,5 4 2 13 7 SE
18.10.2017 18:00:00 18,0 13,7 5 3 15 8 SE
18.10.2017 17:00:00 18,2 13,5 11 6 18 10 ESE
18.10.2017 16:00:00 18,4 13,2 9 5 16 9 SE
18.10.2017 15:00:00 18,6 13,2 4 2 13 7 ESE
18.10.2017 14:00:00 18,7 13,5 4 2 11 6 ESE
18.10.2017 13:00:00 17,9 13,0 4 2 13 7 SE
18.10.2017 12:00:00 16,0 12,5 5 3 16 9 E
18.10.2017 11:00:00 14,4 11,7 9 5 21 11 ESE
18.10.2017 10:00:00 13,4 10,9 11 6 18 10 E
18.10.2017 09:00:00 12,7 10,8 5 3 13 7 E
18.10.2017 08:00:00 12,8 11,0 5 3 11 6 E
18.10.2017 07:00:00 12,6 11,0 8 4 11 6 NE
18.10.2017 06:00:00 13,1 11,2 5 3 13 7 E
18.10.2017 05:00:00 13,1 11,2 8 4 11 6 E
18.10.2017 04:00:00 13,0 11,4 4 2 8 4 E
18.10.2017 03:00:00 12,7 11,4 4 2 8 4 E
18.10.2017 02:00:00 12,6 11,3 4 2 5 3 ESE
18.10.2017 01:00:00 12,1 10,7 2 1 4 2 SE
18.10.2017 00:00:00 11,6 10,2 4 2 8 4 ESE
17.10.2017 23:00:00 12,0 10,4 4 2 8 4 S
17.10.2017 22:00:00 12,2 10,4 5 3 9 5 SSE
17.10.2017 21:00:00 12,6 10,5 4 2 9 5 S
17.10.2017 20:00:00 13,1 10,5 5 3 9 5 S
17.10.2017 19:00:00 13,3 9,3 8 4 16 9 SSW
17.10.2017 18:00:00 14,6 10,0 11 6 18 10 WSW
17.10.2017 17:00:00 14,8 9,1 13 7 26 14 WSW
17.10.2017 16:00:00 15,1 9,6 18 10 29 16 WSW
17.10.2017 15:00:00 15,0 8,9 24 13 29 16 WSW
17.10.2017 14:00:00 15,2 8,4 26 14 34 18 WSW
17.10.2017 13:00:00 15,1 10,9 24 13 31 17 WSW
17.10.2017 12:00:00 14,8 12,1 15 8 22 12 SW
17.10.2017 11:00:00 14,6 11,9 15 8 22 12 SSW
17.10.2017 10:00:00 14,5 11,5 15 8 34 18 SSW
17.10.2017 09:00:00 14,8 10,4 24 13 37 20 WSW
17.10.2017 08:00:00 14,7 10,7 22 12 31 17 SW
17.10.2017 07:00:00 14,7 10,9 22 12 34 18 WSW
17.10.2017 06:00:00 14,8 11,6 24 13 35 19 WSW
17.10.2017 05:00:00 15,3 11,7 26 14 37 20 WSW
17.10.2017 04:00:00 15,5 11,3 26 14 39 21 WSW
17.10.2017 03:00:00 16,0 11,1 26 14 39 21 SW
17.10.2017 02:00:00 16,0 10,9 26 14 35 19 SW
17.10.2017 01:00:00 16,1 12,8 22 12 34 18 SW
17.10.2017 00:00:00 16,6 13,7 22 12 35 19 SW
16.10.2017 23:00:00 17,6 15,2 26 14 37 20 SW
16.10.2017 22:00:00 18,4 15,3 21 11 31 17 SW
16.10.2017 21:00:00 19,4 15,2 13 7 26 14 SSW
16.10.2017 20:00:00 21,6 14,9 21 11 29 16 S
16.10.2017 19:00:00 22,9 15,4 21 11 35 19 S
16.10.2017 18:00:00 23,5 15,8 24 13 41 22 S
16.10.2017 17:00:00 24,2 15,9 26 14 37 20 S
16.10.2017 16:00:00 23,5 16,0 24 13 37 20 S
16.10.2017 15:00:00 24,0 16,0 21 11 34 18 S
16.10.2017 14:00:00 22,5 15,8 22 12 31 17 S
16.10.2017 13:00:00 20,4 15,6 22 12 31 17 S
16.10.2017 12:00:00 20,2 15,6 18 10 29 16 S
16.10.2017 11:00:00 19,8 15,6 11 6 26 14 S
16.10.2017 10:00:00 18,2 15,3 15 8 24 13 S

tt = Température de l'air
td = dewpoint
ff = Vitesse du vent
fx = gusts
dd = Direction du vent

stations d'obs. à proximité